Time;durP1;ratioP1;P1;durP2;ratioP2;P2;SDS_P1;SDS_P2;PMS_P1;PMS_P2;Temp;Humidity;BMP_temperature;BMP_pressure;BME280_temperature;BME280_humidity;BME280_pressure;Samples;Min_cycle;Max_cycle;Signal;HPM_P1;HPM_P2
2023/07/03 04:23:19;;;;;;;18.58;13.32;;;16.80;90.50;;;;;;5040313;28;20237;-90
2023/07/03 04:25:46;;;;;;;19.67;12.85;;;16.80;90.00;;;;;;5054835;28;20315;-90
2023/07/03 04:28:14;;;;;;;18.02;13.02;;;16.70;90.40;;;;;;5054986;28;20304;-89
2023/07/03 04:30:42;;;;;;;21.20;13.95;;;16.70;90.10;;;;;;5038476;28;20202;-93
2023/07/03 04:33:09;;;;;;;17.27;12.85;;;16.80;90.60;;;;;;5051749;28;20201;-90
2023/07/03 04:41:41;;;;;;;18.35;13.43;;;17.00;90.50;;;;;;5058339;28;20232;-92
2023/07/03 04:44:41;;;;;;;19.75;13.63;;;17.20;90.40;;;;;;5044265;28;20187;-93
2023/07/03 04:47:08;;;;;;;18.55;13.55;;;17.20;89.20;;;;;;5055720;28;20198;-90
2023/07/03 05:02:02;;;;;;;19.75;13.43;;;17.40;88.00;;;;;;5056501;28;20208;-91
2023/07/03 05:04:29;;;;;;;20.73;13.98;;;17.50;87.40;;;;;;5055757;28;20682;-92
2023/07/03 05:06:56;;;;;;;21.65;13.07;;;17.60;84.80;;;;;;5058085;28;20190;-90
2023/07/03 05:09:39;;;;;;;22.75;14.30;;;17.60;83.10;;;;;;5039704;28;20226;-91
2023/07/03 05:12:08;;;;;;;19.65;13.57;;;17.60;81.90;;;;;;5035553;28;20194;-91
2023/07/03 05:14:35;;;;;;;19.92;14.05;;;17.60;81.40;;;;;;5041991;28;20217;-92
2023/07/03 05:17:35;;;;;;;20.35;14.20;;;17.90;82.80;;;;;;5025652;28;20281;-91
2023/07/03 05:26:20;;;;;;;19.83;12.80;;;18.60;70.80;;;;;;5043828;28;20193;-90
2023/07/03 05:31:40;;;;;;;24.38;13.65;;;18.60;63.60;;;;;;5038821;28;20258;-92
2023/07/03 05:41:12;;;;;;;20.83;13.27;;;19.00;55.00;;;;;;4964640;28;20216;-92
2023/07/03 05:43:39;;;;;;;21.50;13.60;;;19.20;55.20;;;;;;5011834;28;20210;-88
2023/07/03 05:48:49;;;;;;;26.50;13.90;;;19.40;50.70;;;;;;5009758;28;20226;-90
2023/07/03 05:53:56;;;;;;;20.20;13.77;;;19.50;52.40;;;;;;5019833;28;20198;-91
2023/07/03 05:59:04;;;;;;;19.80;12.57;;;19.80;44.70;;;;;;5017858;28;20617;-92
2023/07/03 06:01:33;;;;;;;23.77;13.55;;;19.80;45.10;;;;;;4995352;28;20195;-92
2023/07/03 06:04:00;;;;;;;20.88;13.27;;;20.00;44.30;;;;;;5022026;28;20200;-91
2023/07/03 06:06:26;;;;;;;22.70;13.52;;;20.00;40.00;;;;;;5027334;28;20285;-91
2023/07/03 06:11:34;;;;;;;19.75;12.55;;;20.10;42.70;;;;;;5018617;28;20256;-92
2023/07/03 06:22:57;;;;;;;20.73;12.40;;;20.60;35.80;;;;;;5014789;28;20209;-90
2023/07/03 06:25:24;;;;;;;21.35;12.40;;;20.60;34.80;;;;;;5032949;28;20198;-91
2023/07/03 06:27:52;;;;;;;18.80;12.35;;;20.50;35.30;;;;;;5024163;28;20199;-90
2023/07/03 06:30:19;;;;;;;21.33;12.13;;;20.60;33.10;;;;;;5011044;28;20299;-93
2023/07/03 06:32:51;;;;;;;18.95;12.25;;;20.70;32.60;;;;;;5034650;28;20234;-91
2023/07/03 06:38:02;;;;;;;18.40;12.00;;;20.60;32.50;;;;;;5034566;28;20285;-91
2023/07/03 06:45:57;;;;;;;23.35;11.63;;;20.80;30.10;;;;;;5020084;28;20225;-91
2023/07/03 06:51:25;;;;;;;42.25;32.25;;;20.90;32.90;;;;;;5033923;28;20210;-91
2023/07/03 06:54:12;;;;;;;18.95;11.80;;;20.90;31.60;;;;;;5040635;28;20190;-92
2023/07/03 06:56:39;;;;;;;18.95;12.30;;;21.20;29.60;;;;;;5031101;28;20233;-91
2023/07/03 06:59:06;;;;;;;22.17;12.52;;;21.20;25.50;;;;;;5029262;28;20659;-93
2023/07/03 07:01:33;;;;;;;23.25;15.32;;;21.40;25.70;;;;;;5016329;28;20205;-91
2023/07/03 07:04:08;;;;;;;37.38;27.10;;;21.70;25.80;;;;;;5033686;28;20889;-92
2023/07/03 07:06:35;;;;;;;24.67;14.07;;;21.90;25.60;;;;;;5033833;28;20281;-92
2023/07/03 07:11:46;;;;;;;19.55;11.85;;;21.70;23.80;;;;;;5041430;28;20206;-91
2023/07/03 07:14:14;;;;;;;19.25;13.02;;;21.60;23.60;;;;;;5014971;28;20199;-92
2023/07/03 07:16:42;;;;;;;18.67;12.05;;;21.60;24.90;;;;;;5009381;28;20664;-92
2023/07/03 07:21:52;;;;;;;18.77;12.40;;;21.60;27.30;;;;;;5023938;28;20285;-92
2023/07/03 07:24:21;;;;;;;18.27;11.95;;;21.70;28.30;;;;;;5014938;28;20202;-90
2023/07/03 07:26:50;;;;;;;19.55;12.75;;;21.70;29.40;;;;;;5021009;28;20202;-91
2023/07/03 07:29:17;;;;;;;17.48;11.82;;;22.20;28.00;;;;;;5013590;28;20218;-91
2023/07/03 07:31:44;;;;;;;20.95;12.43;;;22.30;28.00;;;;;;5016579;28;20206;-92
2023/07/03 07:34:13;;;;;;;20.80;11.85;;;22.40;25.70;;;;;;5017521;28;20316;-91
2023/07/03 07:36:41;;;;;;;16.15;10.85;;;22.50;25.60;;;;;;5036442;28;20203;-90
2023/07/03 07:39:09;;;;;;;19.10;11.80;;;22.60;23.20;;;;;;5014454;28;20203;-89
2023/07/03 07:41:36;;;;;;;16.88;11.95;;;22.40;26.10;;;;;;5027112;28;20194;-92
2023/07/03 07:44:05;;;;;;;17.95;11.60;;;22.40;26.70;;;;;;5019305;28;20205;-90
2023/07/03 07:46:33;;;;;;;17.80;11.75;;;22.30;25.90;;;;;;5032548;28;20222;-92
2023/07/03 07:49:01;;;;;;;18.35;11.40;;;22.40;23.70;;;;;;5035974;28;20218;-91
2023/07/03 07:51:30;;;;;;;15.88;10.77;;;22.40;25.10;;;;;;5033249;28;20203;-91
2023/07/03 07:53:58;;;;;;;16.85;11.35;;;22.20;25.00;;;;;;5022619;28;20195;-90
2023/07/03 07:56:27;;;;;;;16.38;11.25;;;22.00;25.20;;;;;;5026202;28;21204;-92
2023/07/03 07:58:54;;;;;;;13.07;10.27;;;21.80;26.90;;;;;;4997460;28;20622;-91
2023/07/03 08:01:21;;;;;;;15.23;10.77;;;21.80;24.80;;;;;;5015529;28;20202;-92
2023/07/03 08:03:49;;;;;;;16.05;10.73;;;21.60;26.10;;;;;;5012758;28;20503;-92
2023/07/03 08:06:17;;;;;;;16.85;10.50;;;21.60;26.00;;;;;;5031205;28;20667;-90
2023/07/03 08:08:50;;;;;;;16.88;10.40;;;21.60;26.00;;;;;;5034143;28;20218;-93
2023/07/03 08:11:17;;;;;;;15.60;10.77;;;21.50;27.30;;;;;;5034660;28;20226;-90
2023/07/03 08:13:43;;;;;;;13.30;9.93;;;21.50;26.80;;;;;;5033716;28;20198;-90
2023/07/03 08:18:52;;;;;;;23.05;15.88;;;21.60;27.00;;;;;;5021870;28;20226;-92
2023/07/03 08:21:19;;;;;;;14.00;10.52;;;21.90;25.10;;;;;;5030811;28;20586;-89
2023/07/03 08:23:48;;;;;;;17.00;9.60;;;22.10;24.40;;;;;;5013874;28;20202;-91
2023/07/03 08:26:20;;;;;;;13.00;10.18;;;22.50;23.40;;;;;;5012886;28;20213;-92
2023/07/03 08:28:47;;;;;;;16.65;10.13;;;22.80;22.80;;;;;;5031209;28;20219;-91
2023/07/03 08:31:13;;;;;;;14.30;9.98;;;22.90;22.70;;;;;;5033120;28;20234;-89
2023/07/03 08:33:40;;;;;;;18.33;9.40;;;23.10;22.50;;;;;;5027402;28;20207;-92
2023/07/03 08:36:07;;;;;;;14.55;10.02;;;23.40;19.90;;;;;;5011657;28;20213;-89
2023/07/03 08:38:34;;;;;;;13.35;9.90;;;23.60;20.60;;;;;;5025480;28;20199;-89
2023/07/03 08:41:03;;;;;;;13.77;9.73;;;23.40;21.30;;;;;;5015532;28;20220;-88
2023/07/03 08:43:34;;;;;;;15.70;9.43;;;23.50;22.20;;;;;;5014291;28;20210;-89
2023/07/03 08:46:03;;;;;;;15.05;9.40;;;23.50;20.00;;;;;;5006465;28;20191;-91
2023/07/03 08:48:36;;;;;;;15.13;9.60;;;23.50;19.40;;;;;;5028374;28;20281;-91
2023/07/03 08:51:08;;;;;;;14.70;9.68;;;23.30;21.40;;;;;;5020367;28;20205;-91
2023/07/03 08:56:26;;;;;;;24.13;17.65;;;22.60;24.10;;;;;;5018800;28;20282;-91
2023/07/03 09:01:43;;;;;;;20.83;11.25;;;22.40;24.80;;;;;;5014207;28;20202;-90
2023/07/03 09:04:25;;;;;;;22.42;15.63;;;22.30;22.20;;;;;;5025088;28;20228;-90
2023/07/03 09:06:57;;;;;;;22.75;14.57;;;22.10;25.80;;;;;;5029476;28;20214;-91
2023/07/03 09:09:32;;;;;;;12.23;8.80;;;22.00;26.30;;;;;;5029446;28;20214;-89
2023/07/03 09:12:06;;;;;;;14.65;8.30;;;22.00;26.10;;;;;;5028213;28;20205;-91
2023/07/03 09:14:38;;;;;;;15.13;8.43;;;22.00;23.30;;;;;;5031719;28;20200;-91
2023/07/03 09:17:09;;;;;;;13.35;8.25;;;22.10;24.00;;;;;;5026486;28;20574;-92
2023/07/03 09:19:39;;;;;;;12.75;7.63;;;22.20;23.50;;;;;;5028478;28;20666;-91
2023/07/03 09:22:11;;;;;;;10.70;7.10;;;22.50;22.20;;;;;;5028915;28;20201;-89
2023/07/03 09:24:41;;;;;;;12.07;7.60;;;22.50;22.10;;;;;;5012653;28;20198;-91
2023/07/03 09:30:01;;;;;;;13.05;8.30;;;23.80;20.00;;;;;;5031313;28;20244;-88
2023/07/03 09:32:31;;;;;;;14.65;7.10;;;24.10;18.60;;;;;;5026820;28;20670;-89
2023/07/03 09:35:05;;;;;;;10.43;6.95;;;24.30;17.50;;;;;;5016352;28;20234;-88
2023/07/03 09:37:32;;;;;;;9.55;6.07;;;24.30;17.70;;;;;;5031615;28;20194;-88
2023/07/03 09:39:59;;;;;;;13.60;6.78;;;24.00;17.90;;;;;;5030228;28;20195;-88
2023/07/03 09:45:15;;;;;;;9.10;6.65;;;23.50;18.80;;;;;;5035858;28;20599;-90
2023/07/03 09:47:48;;;;;;;8.25;6.32;;;23.30;19.00;;;;;;5030649;28;20682;-91
2023/07/03 09:50:15;;;;;;;11.63;6.55;;;23.30;19.50;;;;;;5033004;28;20234;-91
2023/07/03 09:52:43;;;;;;;9.40;6.28;;;23.50;19.40;;;;;;5019362;28;20205;-89
2023/07/03 09:55:11;;;;;;;9.00;6.40;;;24.20;18.20;;;;;;4993891;28;20234;-90
2023/07/03 10:00:24;;;;;;;9.43;6.38;;;25.20;16.50;;;;;;5025488;28;20276;-93
2023/07/03 10:02:53;;;;;;;10.07;6.55;;;25.50;15.50;;;;;;5032190;28;20209;-91
2023/07/03 10:05:29;;;;;;;9.07;6.60;;;25.30;15.10;;;;;;5030645;28;20206;-91
2023/07/03 10:10:42;;;;;;;12.50;6.95;;;24.70;16.20;;;;;;5036887;28;20229;-91
2023/07/03 10:13:16;;;;;;;10.50;6.75;;;24.30;17.50;;;;;;5034092;28;20237;-87
2023/07/03 10:15:43;;;;;;;20.85;16.13;;;24.10;17.30;;;;;;5033845;28;20201;-90
2023/07/03 10:18:15;;;;;;;33.35;25.23;;;24.10;17.00;;;;;;5033381;28;20214;-90
2023/07/03 10:23:28;;;;;;;52.50;42.08;;;23.50;18.60;;;;;;5027698;28;20209;-89
2023/07/03 10:26:01;;;;;;;10.73;7.30;;;23.20;19.50;;;;;;5027664;28;20262;-91
2023/07/03 10:28:45;;;;;;;18.98;14.25;;;23.20;21.20;;;;;;5032117;28;20207;-89
2023/07/03 10:31:16;;;;;;;9.60;6.72;;;23.20;21.20;;;;;;5027330;28;20548;-91
2023/07/03 10:33:46;;;;;;;11.48;7.90;;;23.00;21.60;;;;;;5026534;28;20206;-89
2023/07/03 10:36:20;;;;;;;9.82;6.65;;;22.90;21.60;;;;;;5027207;28;20198;-91
2023/07/03 10:38:55;;;;;;;11.65;6.68;;;22.80;21.10;;;;;;5033430;28;20260;-91
2023/07/03 10:41:28;;;;;;;11.10;6.75;;;22.90;22.20;;;;;;5012124;28;20229;-91
2023/07/03 10:44:01;;;;;;;10.35;7.30;;;23.20;23.00;;;;;;5011927;28;20203;-91
2023/07/03 10:46:38;;;;;;;11.93;7.53;;;23.40;20.90;;;;;;5030303;28;20427;-90
2023/07/03 10:49:15;;;;;;;12.25;7.72;;;23.50;21.60;;;;;;5035682;28;20197;-92
2023/07/03 10:51:53;;;;;;;9.50;6.97;;;23.70;20.50;;;;;;5030060;28;20239;-91
2023/07/03 10:54:27;;;;;;;11.43;6.75;;;24.00;19.70;;;;;;5029032;28;20778;-90
2023/07/03 10:57:18;;;;;;;15.73;7.45;;;24.00;18.50;;;;;;5031870;28;20201;-90
2023/07/03 10:59:50;;;;;;;9.90;7.10;;;23.80;20.30;;;;;;5032082;28;20208;-91
2023/07/03 11:02:30;;;;;;;12.02;7.13;;;23.60;21.20;;;;;;5021562;28;20211;-91
2023/07/03 11:05:09;;;;;;;10.85;6.20;;;23.50;20.30;;;;;;5040352;28;20207;-91
2023/07/03 11:18:56;;;;;;;9.48;6.75;;;23.20;22.00;;;;;;5033255;28;20222;-90
2023/07/03 11:24:21;;;;;;;13.90;7.32;;;22.70;22.50;;;;;;5034567;28;20284;-92
2023/07/03 11:29:36;;;;;;;10.07;7.05;;;22.70;22.50;;;;;;5015211;28;20218;-92
2023/07/03 11:37:35;;;;;;;10.55;6.70;;;23.40;20.80;;;;;;5026222;28;20206;-92
2023/07/03 11:51:42;;;;;;;9.90;7.25;;;23.10;21.50;;;;;;5015393;28;20195;-92
2023/07/03 11:59:46;;;;;;;9.88;6.72;;;23.00;21.70;;;;;;5018083;28;20568;-92
2023/07/03 12:02:54;;;;;;;9.30;7.10;;;22.90;22.70;;;;;;5005903;28;20237;-90
2023/07/03 12:11:20;;;;;;;10.15;7.10;;;22.80;23.20;;;;;;5033767;28;20293;-91
2023/07/03 12:16:43;;;;;;;9.77;7.35;;;22.70;24.00;;;;;;5025625;28;20281;-91
2023/07/03 12:27:46;;;;;;;10.52;6.72;;;23.10;21.10;;;;;;5018973;28;20292;-91
2023/07/03 12:30:23;;;;;;;11.18;6.80;;;23.20;22.50;;;;;;5031669;28;20313;-91
2023/07/03 12:32:51;;;;;;;11.45;6.95;;;23.20;21.60;;;;;;5033363;28;20328;-91
2023/07/03 12:35:20;;;;;;;10.82;7.00;;;23.10;20.70;;;;;;5017540;28;20260;-93
2023/07/03 12:41:13;;;;;;;11.23;6.78;;;23.30;22.10;;;;;;5005332;28;20837;-92
2023/07/03 12:49:32;;;;;;;10.27;7.63;;;23.40;20.60;;;;;;5011388;28;20220;-91
2023/07/03 12:51:59;;;;;;;12.25;6.93;;;23.50;22.60;;;;;;5033820;28;20201;-90
2023/07/03 12:54:27;;;;;;;13.10;7.13;;;23.60;20.00;;;;;;5036356;28;20213;-92
2023/07/03 12:56:56;;;;;;;12.07;6.85;;;23.60;19.80;;;;;;5043530;28;20222;-92
2023/07/03 12:59:51;;;;;;;11.77;7.00;;;23.50;20.60;;;;;;5032432;28;20587;-92
2023/07/03 13:07:45;;;;;;;9.65;6.40;;;23.60;19.80;;;;;;5033997;28;20290;-89
2023/07/03 13:29:45;;;;;;;12.13;6.43;;;24.70;17.60;;;;;;5008895;28;20210;-91
2023/07/03 13:32:14;;;;;;;9.50;7.00;;;25.00;18.00;;;;;;5015038;28;20213;-91
2023/07/03 13:37:38;;;;;;;10.70;6.63;;;24.90;19.20;;;;;;5036694;28;20635;-88
2023/07/03 13:48:35;;;;;;;10.35;6.82;;;24.80;18.20;;;;;;5656729;22;20208;-94
2023/07/03 13:51:02;;;;;;;10.23;6.25;;;24.70;16.60;;;;;;5065763;28;20248;-91
2023/07/03 13:53:29;;;;;;;10.20;6.28;;;24.70;17.10;;;;;;5236349;22;20244;-92
2023/07/03 13:55:56;;;;;;;11.25;6.70;;;24.80;15.40;;;;;;5046556;28;20209;-92
2023/07/03 13:58:44;;;;;;;10.73;6.53;;;24.60;17.00;;;;;;5062820;28;20201;-90
2023/07/03 14:03:53;;;;;;;12.68;6.32;;;24.60;16.90;;;;;;5057562;28;20359;-91
2023/07/03 14:06:21;;;;;;;9.45;6.20;;;24.80;15.60;;;;;;5046932;28;20711;-90
2023/07/03 14:08:48;;;;;;;10.68;5.88;;;24.80;14.50;;;;;;5055604;28;20231;-91
2023/07/03 14:11:15;;;;;;;8.48;6.35;;;24.70;15.30;;;;;;5053200;28;20789;-92
2023/07/03 14:13:46;;;;;;;7.22;5.80;;;24.60;15.80;;;;;;5059622;28;20559;-89
2023/07/03 14:18:57;;;;;;;11.65;6.18;;;24.70;14.00;;;;;;5056545;28;20247;-92
2023/07/03 14:21:29;;;;;;;10.48;5.97;;;24.80;16.00;;;;;;5066198;28;20209;-91
2023/07/03 14:23:56;;;;;;;12.80;6.82;;;24.60;14.00;;;;;;5059183;28;20231;-91
2023/07/03 14:26:24;;;;;;;8.40;5.85;;;24.40;15.10;;;;;;5054466;28;20213;-90
2023/07/03 14:28:57;;;;;;;8.50;5.75;;;24.30;15.70;;;;;;5058631;28;20335;-88
2023/07/03 14:34:16;;;;;;;12.13;5.70;;;24.30;15.00;;;;;;5053421;28;20206;-90
2023/07/03 14:36:43;;;;;;;10.27;6.32;;;24.10;16.60;;;;;;5059507;28;20205;-91
2023/07/03 14:39:10;;;;;;;8.93;6.05;;;24.00;16.20;;;;;;5058892;28;20201;-89
2023/07/03 14:44:18;;;;;;;10.20;6.28;;;24.50;14.80;;;;;;5051624;28;20665;-90
2023/07/03 14:49:28;;;;;;;10.10;6.47;;;24.90;15.70;;;;;;5057333;28;20197;-90
2023/07/03 14:51:55;;;;;;;9.80;6.43;;;24.90;14.80;;;;;;5056742;28;20222;-92
2023/07/03 14:54:25;;;;;;;12.48;6.40;;;24.80;15.30;;;;;;5035752;28;20251;-91
2023/07/03 14:56:54;;;;;;;10.23;5.95;;;24.70;14.10;;;;;;5053764;28;20302;-90
2023/07/03 14:59:21;;;;;;;10.57;6.68;;;24.70;14.90;;;;;;5052586;28;20209;-89
2023/07/03 15:01:55;;;;;;;9.70;6.30;;;24.60;15.50;;;;;;5059240;28;20189;-91
2023/07/03 15:04:42;;;;;;;12.43;6.10;;;24.60;16.60;;;;;;5060499;28;20198;-88
2023/07/03 15:07:09;;;;;;;10.45;6.15;;;24.30;15.30;;;;;;5040158;28;20205;-88
2023/07/03 15:09:36;;;;;;;10.15;7.05;;;24.10;17.00;;;;;;5058517;28;20202;-90
2023/07/03 15:12:07;;;;;;;11.93;6.35;;;24.10;16.30;;;;;;5043515;28;20221;-88
2023/07/03 15:14:35;;;;;;;11.50;6.80;;;24.30;17.00;;;;;;5045587;28;20669;-87
2023/07/03 15:17:03;;;;;;;10.20;6.15;;;24.50;17.40;;;;;;5057492;28;20194;-86
2023/07/03 15:19:31;;;;;;;8.35;6.45;;;24.60;16.90;;;;;;5062183;28;20221;-87
2023/07/03 15:21:58;;;;;;;13.98;7.10;;;24.30;17.10;;;;;;5062675;28;20204;-87
2023/07/03 15:24:25;;;;;;;10.77;6.50;;;24.20;17.10;;;;;;5028866;28;20216;-89
2023/07/03 15:26:52;;;;;;;10.05;6.32;;;24.00;18.10;;;;;;5043567;28;20201;-89
2023/07/03 15:29:19;;;;;;;13.50;6.97;;;23.70;17.80;;;;;;5058539;28;20205;-89
2023/07/03 15:31:46;;;;;;;12.85;6.75;;;23.60;17.80;;;;;;5059671;28;20232;-88
2023/07/03 15:34:16;;;;;;;10.00;6.05;;;23.50;17.90;;;;;;5034644;28;20202;-91
2023/07/03 15:36:43;;;;;;;12.23;6.70;;;23.70;18.40;;;;;;5071206;28;20193;-90
2023/07/03 15:39:09;;;;;;;10.82;6.80;;;23.90;18.70;;;;;;5066125;28;20205;-90
2023/07/03 15:41:36;;;;;;;12.20;6.43;;;23.80;18.10;;;;;;5070431;28;20194;-90
2023/07/03 15:44:04;;;;;;;9.68;6.55;;;23.80;19.00;;;;;;5043597;28;20208;-90
2023/07/03 15:46:31;;;;;;;12.98;6.43;;;23.70;18.50;;;;;;5037467;28;20201;-88
2023/07/03 15:48:58;;;;;;;11.90;6.53;;;23.70;18.80;;;;;;5042013;28;20209;-89
2023/07/03 15:51:26;;;;;;;10.93;6.60;;;23.80;18.90;;;;;;5027102;28;20291;-88
2023/07/03 15:53:53;;;;;;;9.95;6.15;;;23.80;18.40;;;;;;5057732;28;20221;-90
2023/07/03 15:56:21;;;;;;;9.23;6.57;;;23.80;18.60;;;;;;5055591;28;20205;-91
2023/07/03 15:58:52;;;;;;;9.93;6.45;;;23.80;18.20;;;;;;5056211;28;20206;-88
2023/07/03 16:01:20;;;;;;;12.18;6.57;;;23.70;17.60;;;;;;5064975;28;20197;-87
2023/07/03 16:03:48;;;;;;;9.48;6.32;;;23.60;18.00;;;;;;5063806;28;20201;-90
2023/07/03 16:06:17;;;;;;;12.25;6.32;;;23.50;18.10;;;;;;5060128;28;20201;-86
2023/07/03 16:08:46;;;;;;;12.07;6.15;;;23.50;18.00;;;;;;5060774;28;20247;-89
2023/07/03 16:11:16;;;;;;;12.38;6.60;;;23.40;18.80;;;;;;5065907;28;20295;-89
2023/07/03 16:13:44;;;;;;;9.75;6.60;;;23.20;18.40;;;;;;5065063;28;20200;-88
2023/07/03 16:16:13;;;;;;;11.52;6.50;;;23.10;18.60;;;;;;5061161;28;20208;-85
2023/07/03 16:18:40;;;;;;;10.27;6.72;;;23.00;18.50;;;;;;5054010;28;20213;-88
2023/07/03 16:21:12;;;;;;;8.45;5.75;;;23.00;19.20;;;;;;5041849;28;20252;-89
2023/07/03 16:23:39;;;;;;;10.45;6.22;;;23.00;19.70;;;;;;5057659;28;20190;-89
2023/07/03 16:26:07;;;;;;;11.23;6.10;;;23.00;18.30;;;;;;5067291;28;20196;-88
2023/07/03 16:28:36;;;;;;;10.38;6.20;;;23.00;20.00;;;;;;5047985;28;20193;-91
2023/07/03 16:31:05;;;;;;;10.38;6.25;;;23.00;18.70;;;;;;5061686;28;20217;-90
2023/07/03 16:33:33;;;;;;;11.63;6.18;;;23.00;19.40;;;;;;5024865;28;20205;-90
2023/07/03 16:36:03;;;;;;;10.73;6.43;;;23.00;18.70;;;;;;5063755;28;20224;-89
2023/07/03 16:38:30;;;;;;;9.32;6.10;;;23.00;20.30;;;;;;5068741;28;20205;-90
2023/07/03 16:41:01;;;;;;;9.88;6.60;;;22.90;19.30;;;;;;5067206;28;20202;-90
2023/07/03 16:43:32;;;;;;;10.57;6.15;;;22.80;18.70;;;;;;5065434;28;20273;-90
2023/07/03 16:46:13;;;;;;;13.02;6.00;;;22.80;18.40;;;;;;5067808;28;20228;-88
2023/07/03 16:48:43;;;;;;;10.52;6.40;;;22.90;19.20;;;;;;5044955;28;20254;-91
2023/07/03 16:51:20;;;;;;;11.77;5.85;;;22.80;19.20;;;;;;5076189;28;20563;-89
2023/07/03 16:54:06;;;;;;;11.18;6.28;;;22.80;19.10;;;;;;4991966;28;20249;-91
2023/07/03 17:01:59;;;;;;;11.65;6.43;;;22.60;19.90;;;;;;5010046;28;20207;-89
2023/07/03 17:04:26;;;;;;;12.90;6.55;;;22.70;20.00;;;;;;5009682;28;20333;-87
2023/07/03 17:06:57;;;;;;;12.85;6.63;;;22.70;20.10;;;;;;4991416;28;20285;-86
2023/07/03 17:09:24;;;;;;;10.75;6.05;;;22.80;19.90;;;;;;4986785;28;20210;-87
2023/07/03 17:11:51;;;;;;;10.50;6.45;;;22.80;19.40;;;;;;5002553;28;20224;-87
2023/07/03 17:14:24;;;;;;;15.32;6.65;;;22.80;19.60;;;;;;4998443;28;20222;-88
2023/07/03 17:16:51;;;;;;;12.10;6.80;;;22.80;19.60;;;;;;5005252;28;20663;-88
2023/07/03 17:19:18;;;;;;;13.85;6.63;;;22.70;20.30;;;;;;4989092;28;20245;-90
2023/07/03 17:21:45;;;;;;;11.27;7.07;;;22.60;19.90;;;;;;4978885;28;20208;-91
2023/07/03 17:24:12;;;;;;;11.75;6.60;;;22.50;20.00;;;;;;4962788;28;20755;-84
2023/07/03 17:26:40;;;;;;;10.93;6.65;;;22.50;20.00;;;;;;4976229;28;20203;-89
2023/07/03 17:29:07;;;;;;;11.02;6.28;;;22.40;20.50;;;;;;4988408;28;20573;-87
2023/07/03 17:31:36;;;;;;;10.00;7.07;;;22.40;20.50;;;;;;4982926;28;20220;-87
2023/07/03 17:34:03;;;;;;;11.18;7.07;;;22.50;20.80;;;;;;4978798;28;20658;-87
2023/07/03 17:36:30;;;;;;;9.95;6.88;;;22.50;21.30;;;;;;4982779;28;20238;-87
2023/07/03 17:38:57;;;;;;;10.88;7.03;;;22.40;20.90;;;;;;4984496;28;20211;-88
2023/07/03 17:41:25;;;;;;;10.88;5.85;;;22.40;21.80;;;;;;4985557;28;20212;-87
2023/07/03 17:43:52;;;;;;;10.25;6.07;;;22.40;20.70;;;;;;4981210;28;20243;-88
2023/07/03 17:46:19;;;;;;;12.20;6.82;;;22.30;20.80;;;;;;4971627;28;20212;-88
2023/07/03 17:48:48;;;;;;;12.25;6.53;;;22.20;21.40;;;;;;4985033;28;20214;-88
2023/07/03 17:51:15;;;;;;;11.60;6.97;;;22.10;22.00;;;;;;4984217;28;20223;-88
2023/07/03 17:53:44;;;;;;;12.82;6.45;;;22.20;21.20;;;;;;4998107;28;20207;-86
2023/07/03 17:56:10;;;;;;;10.40;6.50;;;22.20;20.90;;;;;;5004069;28;20191;-90
2023/07/03 17:58:38;;;;;;;9.18;6.13;;;22.20;20.30;;;;;;4986527;28;20412;-88
2023/07/03 18:01:05;;;;;;;9.43;5.78;;;22.20;19.90;;;;;;5001992;28;20326;-87
2023/07/03 18:06:27;;;;;;;12.35;6.20;;;22.10;20.00;;;;;;4982167;28;20653;-89
2023/07/03 18:08:55;;;;;;;9.73;6.00;;;22.00;20.40;;;;;;5008724;28;20661;-89
2023/07/03 18:11:21;;;;;;;8.75;5.85;;;22.00;20.20;;;;;;5012266;28;20226;-89
2023/07/03 18:13:49;;;;;;;10.60;5.97;;;21.90;20.70;;;;;;4985308;28;20655;-89
2023/07/03 18:16:16;;;;;;;9.48;6.07;;;21.90;20.40;;;;;;5010775;28;20199;-89
2023/07/03 18:18:43;;;;;;;11.38;6.03;;;21.80;21.00;;;;;;5006067;28;20755;-90
2023/07/03 18:21:10;;;;;;;10.48;6.15;;;21.80;20.60;;;;;;5011307;28;20215;-88
2023/07/03 18:23:39;;;;;;;10.93;5.50;;;21.70;21.60;;;;;;4992732;28;20200;-87
2023/07/03 18:26:05;;;;;;;12.13;5.90;;;21.70;20.50;;;;;;5007344;28;20195;-89
2023/07/03 18:28:32;;;;;;;10.30;6.18;;;21.70;21.00;;;;;;5008666;28;20200;-87
2023/07/03 18:31:00;;;;;;;12.70;6.28;;;21.60;20.60;;;;;;4987545;28;20249;-87
2023/07/03 18:33:27;;;;;;;9.93;6.25;;;21.60;20.70;;;;;;5008690;28;20206;-87
2023/07/03 18:35:54;;;;;;;11.57;6.32;;;21.60;21.80;;;;;;5004322;28;20200;-90
2023/07/03 18:38:23;;;;;;;11.50;6.18;;;21.50;21.50;;;;;;5006679;28;20204;-87
2023/07/03 18:40:51;;;;;;;13.95;6.55;;;21.50;21.40;;;;;;4951987;28;20195;-87
2023/07/03 18:43:18;;;;;;;11.05;6.43;;;21.50;21.80;;;;;;5004394;28;20618;-88
2023/07/03 18:45:48;;;;;;;9.52;5.65;;;21.50;21.40;;;;;;5008685;28;20199;-87
2023/07/03 18:48:17;;;;;;;10.25;5.78;;;21.50;21.60;;;;;;5006768;28;20215;-88
2023/07/03 18:50:49;;;;;;;10.15;6.00;;;21.50;21.50;;;;;;5006157;28;20199;-89
2023/07/03 18:53:16;;;;;;;10.48;5.80;;;21.50;21.00;;;;;;5004832;28;20270;-84
2023/07/03 18:55:47;;;;;;;11.43;6.28;;;21.40;23.00;;;;;;5005305;28;20196;-86
2023/07/03 18:58:15;;;;;;;9.18;5.53;;;21.40;21.80;;;;;;5004924;28;20224;-86
2023/07/03 19:00:53;;;;;;;13.43;6.20;;;21.40;21.50;;;;;;5005001;28;20199;-87
2023/07/03 19:03:20;;;;;;;10.52;6.30;;;21.30;22.00;;;;;;5003382;28;20200;-86
2023/07/03 19:05:50;;;;;;;11.48;5.72;;;21.30;22.60;;;;;;5008212;28;20203;-87
2023/07/03 19:08:18;;;;;;;10.38;5.80;;;21.20;22.70;;;;;;5003283;28;20207;-87
2023/07/03 19:10:45;;;;;;;9.77;6.22;;;21.20;23.50;;;;;;5002727;28;20207;-85
2023/07/03 19:13:12;;;;;;;10.77;6.45;;;21.20;23.60;;;;;;5004412;28;20606;-87
2023/07/03 19:15:40;;;;;;;9.15;6.03;;;21.20;24.10;;;;;;5006327;28;20210;-86
2023/07/03 19:18:10;;;;;;;10.48;6.28;;;21.10;24.10;;;;;;5006760;28;20230;-86
2023/07/03 19:20:37;;;;;;;10.43;6.30;;;21.10;24.80;;;;;;5006057;28;20196;-86
2023/07/03 19:23:05;;;;;;;9.80;6.25;;;21.10;25.10;;;;;;5004459;28;20200;-87
2023/07/03 19:25:31;;;;;;;10.02;6.20;;;21.10;24.80;;;;;;4987121;28;20210;-87
2023/07/03 19:27:59;;;;;;;13.00;6.13;;;21.10;25.80;;;;;;5003892;28;20203;-87
2023/07/03 19:30:26;;;;;;;11.07;6.30;;;21.00;26.10;;;;;;5004304;28;20192;-87
2023/07/03 19:32:54;;;;;;;8.75;6.07;;;21.00;26.50;;;;;;5003697;28;20234;-86
2023/07/03 19:35:21;;;;;;;11.27;6.80;;;20.90;26.80;;;;;;5000387;28;20287;-87
2023/07/03 19:37:48;;;;;;;12.55;6.68;;;20.80;27.00;;;;;;4998226;28;20199;-88
2023/07/03 19:40:16;;;;;;;12.27;6.82;;;20.80;27.80;;;;;;5000167;28;20202;-88
2023/07/03 19:42:43;;;;;;;12.95;6.63;;;20.70;28.70;;;;;;5000210;28;20609;-86
2023/07/03 19:45:11;;;;;;;12.07;6.30;;;20.60;27.60;;;;;;4979715;28;20211;-86
2023/07/03 19:47:38;;;;;;;11.73;5.72;;;20.50;28.40;;;;;;4999694;28;20636;-86
2023/07/03 19:50:10;;;;;;;11.15;6.50;;;20.50;28.00;;;;;;4985637;28;20286;-87
2023/07/03 19:52:37;;;;;;;9.48;5.85;;;20.50;28.30;;;;;;5008567;28;20270;-85
2023/07/03 19:55:06;;;;;;;10.65;6.20;;;20.40;29.00;;;;;;5013161;28;20202;-85
2023/07/03 19:57:33;;;;;;;10.35;5.85;;;20.40;28.90;;;;;;5011579;28;20200;-87
2023/07/03 20:00:01;;;;;;;11.88;6.15;;;20.30;29.00;;;;;;4982425;28;20202;-86
2023/07/03 20:02:28;;;;;;;10.75;5.80;;;20.30;29.40;;;;;;5010845;28;20203;-87
2023/07/03 20:04:55;;;;;;;10.82;5.97;;;20.30;30.00;;;;;;5005343;28;20667;-87
2023/07/03 20:07:24;;;;;;;11.02;6.05;;;20.30;32.30;;;;;;5017514;28;21024;-87
2023/07/03 20:09:51;;;;;;;9.90;6.15;;;20.20;32.20;;;;;;5000099;28;20651;-85
2023/07/03 20:12:18;;;;;;;10.60;6.00;;;20.10;32.20;;;;;;5005799;28;20232;-87
2023/07/03 20:14:45;;;;;;;11.20;6.63;;;20.10;32.20;;;;;;4995745;28;20209;-84
2023/07/03 20:17:12;;;;;;;9.38;6.20;;;20.10;32.20;;;;;;5002980;28;20279;-84
2023/07/03 20:19:39;;;;;;;11.10;6.07;;;20.00;32.10;;;;;;5007395;28;20214;-87
2023/07/03 20:22:06;;;;;;;12.38;6.30;;;20.00;32.10;;;;;;5006811;28;20271;-87
2023/07/03 20:24:34;;;;;;;13.88;7.05;;;20.00;32.90;;;;;;5000743;28;20199;-87
2023/07/03 20:27:01;;;;;;;10.10;6.53;;;20.00;33.80;;;;;;5008965;28;20195;-85
2023/07/03 20:29:28;;;;;;;10.90;6.70;;;20.00;36.40;;;;;;5004697;28;20207;-85
2023/07/03 20:31:55;;;;;;;12.25;6.70;;;19.90;37.30;;;;;;5001964;28;20219;-87
2023/07/03 20:34:22;;;;;;;11.57;6.68;;;19.90;36.40;;;;;;5007410;28;20196;-87
2023/07/03 20:36:49;;;;;;;12.45;7.00;;;19.80;36.80;;;;;;4999496;28;20203;-88
2023/07/03 20:39:16;;;;;;;11.57;6.72;;;19.80;37.00;;;;;;4995797;28;20590;-87
2023/07/03 20:41:44;;;;;;;13.00;6.60;;;19.80;37.80;;;;;;5007593;28;20242;-87
2023/07/03 20:44:11;;;;;;;9.00;6.43;;;19.70;39.50;;;;;;5011487;28;20602;-87
2023/07/03 20:46:38;;;;;;;14.90;7.72;;;19.70;40.20;;;;;;5005255;28;20199;-86